sensor_id;sensor_type;location;lat;lon;timestamp;P1;durP1;ratioP1;P2;durP2;ratioP2
3337;SDS011;1682;49.286;10.788;2023-04-24T00:00:05;2.43;;;2.20;;
3337;SDS011;1682;49.286;10.788;2023-04-24T00:02:35;1.80;;;1.70;;
3337;SDS011;1682;49.286;10.788;2023-04-24T00:05:03;1.70;;;1.60;;
3337;SDS011;1682;49.286;10.788;2023-04-24T00:07:31;1.67;;;1.57;;
3337;SDS011;1682;49.286;10.788;2023-04-24T00:09:58;1.50;;;1.40;;
3337;SDS011;1682;49.286;10.788;2023-04-24T00:12:25;2.20;;;1.70;;
3337;SDS011;1682;49.286;10.788;2023-04-24T00:14:53;2.00;;;1.80;;
3337;SDS011;1682;49.286;10.788;2023-04-24T00:17:20;2.40;;;2.20;;
3337;SDS011;1682;49.286;10.788;2023-04-24T00:19:49;6.80;;;1.70;;
3337;SDS011;1682;49.286;10.788;2023-04-24T00:22:16;2.70;;;1.90;;
3337;SDS011;1682;49.286;10.788;2023-04-24T00:24:45;4.23;;;1.80;;
3337;SDS011;1682;49.286;10.788;2023-04-24T00:27:13;2.80;;;1.73;;
3337;SDS011;1682;49.286;10.788;2023-04-24T00:29:40;2.50;;;2.20;;
3337;SDS011;1682;49.286;10.788;2023-04-24T00:32:07;2.10;;;2.00;;
3337;SDS011;1682;49.286;10.788;2023-04-24T00:34:34;1.80;;;1.70;;
3337;SDS011;1682;49.286;10.788;2023-04-24T00:37:03;2.63;;;2.40;;
3337;SDS011;1682;49.286;10.788;2023-04-24T00:39:30;1.70;;;1.60;;
3337;SDS011;1682;49.286;10.788;2023-04-24T00:41:57;3.20;;;1.50;;
3337;SDS011;1682;49.286;10.788;2023-04-24T00:44:24;1.47;;;1.37;;
3337;SDS011;1682;49.286;10.788;2023-04-24T00:46:52;1.60;;;1.50;;
3337;SDS011;1682;49.286;10.788;2023-04-24T00:49:20;4.93;;;1.47;;
3337;SDS011;1682;49.286;10.788;2023-04-24T00:51:47;2.63;;;1.60;;
3337;SDS011;1682;49.286;10.788;2023-04-24T00:54:18;2.03;;;1.93;;
3337;SDS011;1682;49.286;10.788;2023-04-24T00:56:45;1.27;;;1.20;;
3337;SDS011;1682;49.286;10.788;2023-04-24T00:59:13;1.73;;;1.50;;
3337;SDS011;1682;49.286;10.788;2023-04-24T01:01:40;1.30;;;1.23;;
3337;SDS011;1682;49.286;10.788;2023-04-24T01:04:08;2.03;;;1.90;;
3337;SDS011;1682;49.286;10.788;2023-04-24T01:06:36;1.93;;;1.83;;
3337;SDS011;1682;49.286;10.788;2023-04-24T01:09:05;1.30;;;1.20;;
3337;SDS011;1682;49.286;10.788;2023-04-24T01:11:35;1.60;;;1.50;;
3337;SDS011;1682;49.286;10.788;2023-04-24T01:14:03;1.80;;;1.70;;
3337;SDS011;1682;49.286;10.788;2023-04-24T01:16:30;2.27;;;2.10;;
3337;SDS011;1682;49.286;10.788;2023-04-24T01:18:57;1.30;;;1.20;;
3337;SDS011;1682;49.286;10.788;2023-04-24T01:21:26;1.63;;;1.53;;
3337;SDS011;1682;49.286;10.788;2023-04-24T01:23:55;2.10;;;1.40;;
3337;SDS011;1682;49.286;10.788;2023-04-24T01:26:22;5.27;;;1.90;;
3337;SDS011;1682;49.286;10.788;2023-04-24T01:28:50;1.70;;;1.60;;
3337;SDS011;1682;49.286;10.788;2023-04-24T01:31:18;1.10;;;1.00;;
3337;SDS011;1682;49.286;10.788;2023-04-24T01:33:45;2.10;;;1.40;;
3337;SDS011;1682;49.286;10.788;2023-04-24T01:36:13;2.60;;;1.57;;
3337;SDS011;1682;49.286;10.788;2023-04-24T01:38:40;3.03;;;1.60;;
3337;SDS011;1682;49.286;10.788;2023-04-24T01:41:09;1.50;;;1.40;;
3337;SDS011;1682;49.286;10.788;2023-04-24T01:43:36;1.93;;;1.23;;
3337;SDS011;1682;49.286;10.788;2023-04-24T01:46:03;1.67;;;1.57;;
3337;SDS011;1682;49.286;10.788;2023-04-24T01:48:31;2.37;;;1.83;;
3337;SDS011;1682;49.286;10.788;2023-04-24T01:50:58;2.00;;;1.67;;
3337;SDS011;1682;49.286;10.788;2023-04-24T01:53:26;1.40;;;1.30;;
3337;SDS011;1682;49.286;10.788;2023-04-24T01:55:53;1.60;;;1.50;;
3337;SDS011;1682;49.286;10.788;2023-04-24T01:58:21;2.47;;;1.63;;
3337;SDS011;1682;49.286;10.788;2023-04-24T02:00:49;1.67;;;1.60;;
3337;SDS011;1682;49.286;10.788;2023-04-24T02:03:17;1.40;;;1.30;;
3337;SDS011;1682;49.286;10.788;2023-04-24T02:05:44;2.67;;;2.07;;
3337;SDS011;1682;49.286;10.788;2023-04-24T02:08:11;1.77;;;1.67;;
3337;SDS011;1682;49.286;10.788;2023-04-24T02:10:38;1.40;;;1.30;;
3337;SDS011;1682;49.286;10.788;2023-04-24T02:13:06;1.70;;;1.60;;
3337;SDS011;1682;49.286;10.788;2023-04-24T02:15:34;1.70;;;1.60;;
3337;SDS011;1682;49.286;10.788;2023-04-24T02:18:01;1.83;;;1.47;;
3337;SDS011;1682;49.286;10.788;2023-04-24T02:20:29;1.70;;;1.60;;
3337;SDS011;1682;49.286;10.788;2023-04-24T02:22:59;1.73;;;1.63;;
3337;SDS011;1682;49.286;10.788;2023-04-24T02:25:26;1.60;;;1.47;;
3337;SDS011;1682;49.286;10.788;2023-04-24T02:27:53;1.80;;;1.70;;
3337;SDS011;1682;49.286;10.788;2023-04-24T02:30:21;2.47;;;2.37;;
3337;SDS011;1682;49.286;10.788;2023-04-24T02:32:49;2.27;;;2.10;;
3337;SDS011;1682;49.286;10.788;2023-04-24T02:35:17;3.20;;;2.37;;
3337;SDS011;1682;49.286;10.788;2023-04-24T02:37:44;2.50;;;2.30;;
3337;SDS011;1682;49.286;10.788;2023-04-24T02:40:11;2.60;;;2.40;;
3337;SDS011;1682;49.286;10.788;2023-04-24T02:42:39;3.60;;;2.40;;
3337;SDS011;1682;49.286;10.788;2023-04-24T02:45:06;2.53;;;2.00;;
3337;SDS011;1682;49.286;10.788;2023-04-24T02:47:34;2.53;;;2.33;;
3337;SDS011;1682;49.286;10.788;2023-04-24T02:50:02;2.00;;;1.90;;
3337;SDS011;1682;49.286;10.788;2023-04-24T02:52:29;2.97;;;2.77;;
3337;SDS011;1682;49.286;10.788;2023-04-24T02:54:57;2.77;;;2.57;;
3337;SDS011;1682;49.286;10.788;2023-04-24T02:57:24;2.30;;;2.20;;
3337;SDS011;1682;49.286;10.788;2023-04-24T02:59:51;2.83;;;2.63;;
3337;SDS011;1682;49.286;10.788;2023-04-24T03:02:18;3.67;;;3.07;;
3337;SDS011;1682;49.286;10.788;2023-04-24T03:04:46;3.47;;;3.27;;
3337;SDS011;1682;49.286;10.788;2023-04-24T03:07:15;2.83;;;2.40;;
3337;SDS011;1682;49.286;10.788;2023-04-24T03:09:45;2.40;;;2.30;;
3337;SDS011;1682;49.286;10.788;2023-04-24T03:12:13;2.47;;;2.27;;
3337;SDS011;1682;49.286;10.788;2023-04-24T03:14:42;2.40;;;2.20;;
3337;SDS011;1682;49.286;10.788;2023-04-24T03:17:09;3.23;;;2.93;;
3337;SDS011;1682;49.286;10.788;2023-04-24T03:19:37;3.00;;;2.80;;
3337;SDS011;1682;49.286;10.788;2023-04-24T03:22:04;3.30;;;2.50;;
3337;SDS011;1682;49.286;10.788;2023-04-24T03:24:32;8.30;;;6.13;;
3337;SDS011;1682;49.286;10.788;2023-04-24T03:27:00;2.80;;;2.60;;
3337;SDS011;1682;49.286;10.788;2023-04-24T03:29:27;2.40;;;2.23;;
3337;SDS011;1682;49.286;10.788;2023-04-24T03:31:54;3.20;;;2.30;;
3337;SDS011;1682;49.286;10.788;2023-04-24T03:34:21;2.07;;;1.90;;
3337;SDS011;1682;49.286;10.788;2023-04-24T03:36:48;2.33;;;2.13;;
3337;SDS011;1682;49.286;10.788;2023-04-24T03:39:16;2.30;;;2.10;;
3337;SDS011;1682;49.286;10.788;2023-04-24T03:41:44;6.73;;;3.20;;
3337;SDS011;1682;49.286;10.788;2023-04-24T03:44:12;4.60;;;2.90;;
3337;SDS011;1682;49.286;10.788;2023-04-24T03:46:39;5.13;;;3.87;;
3337;SDS011;1682;49.286;10.788;2023-04-24T03:49:06;3.40;;;3.10;;
3337;SDS011;1682;49.286;10.788;2023-04-24T03:51:33;4.93;;;3.30;;
3337;SDS011;1682;49.286;10.788;2023-04-24T03:54:00;2.60;;;2.40;;
3337;SDS011;1682;49.286;10.788;2023-04-24T03:56:28;4.30;;;2.90;;
3337;SDS011;1682;49.286;10.788;2023-04-24T03:58:57;3.60;;;3.30;;
3337;SDS011;1682;49.286;10.788;2023-04-24T04:01:24;2.93;;;2.17;;
3337;SDS011;1682;49.286;10.788;2023-04-24T04:03:53;2.50;;;1.90;;
3337;SDS011;1682;49.286;10.788;2023-04-24T04:06:20;2.57;;;2.10;;
3337;SDS011;1682;49.286;10.788;2023-04-24T04:08:48;5.53;;;2.77;;
3337;SDS011;1682;49.286;10.788;2023-04-24T04:11:15;2.30;;;2.17;;
3337;SDS011;1682;49.286;10.788;2023-04-24T04:13:42;2.63;;;2.23;;
3337;SDS011;1682;49.286;10.788;2023-04-24T04:16:12;2.90;;;2.70;;
3337;SDS011;1682;49.286;10.788;2023-04-24T04:18:39;3.53;;;2.60;;
3337;SDS011;1682;49.286;10.788;2023-04-24T04:21:06;2.40;;;2.30;;
3337;SDS011;1682;49.286;10.788;2023-04-24T04:23:33;3.10;;;2.40;;
3337;SDS011;1682;49.286;10.788;2023-04-24T04:26:01;16.10;;;9.90;;
3337;SDS011;1682;49.286;10.788;2023-04-24T04:28:28;9.67;;;8.67;;
3337;SDS011;1682;49.286;10.788;2023-04-24T04:30:56;11.33;;;10.53;;
3337;SDS011;1682;49.286;10.788;2023-04-24T04:33:25;8.00;;;7.50;;
3337;SDS011;1682;49.286;10.788;2023-04-24T04:35:52;6.40;;;5.90;;
3337;SDS011;1682;49.286;10.788;2023-04-24T04:38:21;6.53;;;6.07;;
3337;SDS011;1682;49.286;10.788;2023-04-24T04:40:49;8.67;;;8.07;;
3337;SDS011;1682;49.286;10.788;2023-04-24T04:43:17;3.60;;;3.30;;
3337;SDS011;1682;49.286;10.788;2023-04-24T04:45:44;4.00;;;3.57;;
3337;SDS011;1682;49.286;10.788;2023-04-24T04:48:13;4.10;;;3.73;;
3337;SDS011;1682;49.286;10.788;2023-04-24T04:50:44;4.33;;;4.03;;
3337;SDS011;1682;49.286;10.788;2023-04-24T04:53:11;6.87;;;6.40;;
3337;SDS011;1682;49.286;10.788;2023-04-24T04:55:39;5.87;;;5.37;;
3337;SDS011;1682;49.286;10.788;2023-04-24T04:58:06;4.90;;;4.60;;
3337;SDS011;1682;49.286;10.788;2023-04-24T05:00:33;3.73;;;3.43;;
3337;SDS011;1682;49.286;10.788;2023-04-24T05:03:02;4.20;;;3.90;;
3337;SDS011;1682;49.286;10.788;2023-04-24T05:05:30;7.70;;;5.17;;
3337;SDS011;1682;49.286;10.788;2023-04-24T05:07:58;5.07;;;4.60;;
3337;SDS011;1682;49.286;10.788;2023-04-24T05:10:25;4.17;;;3.87;;
3337;SDS011;1682;49.286;10.788;2023-04-24T05:12:53;5.20;;;4.80;;
3337;SDS011;1682;49.286;10.788;2023-04-24T05:15:20;5.00;;;4.60;;
3337;SDS011;1682;49.286;10.788;2023-04-24T05:17:47;7.70;;;6.07;;
3337;SDS011;1682;49.286;10.788;2023-04-24T05:20:15;6.50;;;5.90;;
3337;SDS011;1682;49.286;10.788;2023-04-24T05:22:42;9.50;;;8.60;;
3337;SDS011;1682;49.286;10.788;2023-04-24T05:25:11;5.33;;;4.93;;
3337;SDS011;1682;49.286;10.788;2023-04-24T05:27:38;6.47;;;4.90;;
3337;SDS011;1682;49.286;10.788;2023-04-24T05:30:06;8.20;;;5.40;;
3337;SDS011;1682;49.286;10.788;2023-04-24T05:32:34;6.60;;;6.10;;
3337;SDS011;1682;49.286;10.788;2023-04-24T05:35:01;7.83;;;5.33;;
3337;SDS011;1682;49.286;10.788;2023-04-24T05:37:29;13.77;;;12.37;;
3337;SDS011;1682;49.286;10.788;2023-04-24T05:39:56;12.70;;;11.50;;
3337;SDS011;1682;49.286;10.788;2023-04-24T05:42:25;7.10;;;5.83;;
3337;SDS011;1682;49.286;10.788;2023-04-24T05:44:52;10.33;;;8.43;;
3337;SDS011;1682;49.286;10.788;2023-04-24T05:47:19;8.17;;;5.10;;
3337;SDS011;1682;49.286;10.788;2023-04-24T05:49:47;6.70;;;5.90;;
3337;SDS011;1682;49.286;10.788;2023-04-24T05:52:15;5.60;;;4.63;;
3337;SDS011;1682;49.286;10.788;2023-04-24T05:54:42;6.70;;;5.23;;
3337;SDS011;1682;49.286;10.788;2023-04-24T05:57:09;4.30;;;4.00;;
3337;SDS011;1682;49.286;10.788;2023-04-24T05:59:38;5.67;;;5.20;;
3337;SDS011;1682;49.286;10.788;2023-04-24T06:02:05;3.43;;;3.17;;
3337;SDS011;1682;49.286;10.788;2023-04-24T06:04:32;3.33;;;3.10;;
3337;SDS011;1682;49.286;10.788;2023-04-24T06:07:00;4.40;;;3.17;;
3337;SDS011;1682;49.286;10.788;2023-04-24T06:09:28;3.30;;;2.67;;
3337;SDS011;1682;49.286;10.788;2023-04-24T06:11:55;6.40;;;2.60;;
3337;SDS011;1682;49.286;10.788;2023-04-24T06:14:23;2.63;;;2.43;;
3337;SDS011;1682;49.286;10.788;2023-04-24T06:16:52;2.70;;;2.50;;
3337;SDS011;1682;49.286;10.788;2023-04-24T06:19:19;3.00;;;1.20;;
3337;SDS011;1682;49.286;10.788;2023-04-24T06:21:46;1.63;;;1.53;;
3337;SDS011;1682;49.286;10.788;2023-04-24T06:24:13;1.30;;;1.20;;
3337;SDS011;1682;49.286;10.788;2023-04-24T06:26:42;1.57;;;1.47;;
3337;SDS011;1682;49.286;10.788;2023-04-24T06:29:09;3.20;;;2.27;;
3337;SDS011;1682;49.286;10.788;2023-04-24T06:31:36;1.37;;;1.27;;
3337;SDS011;1682;49.286;10.788;2023-04-24T06:34:05;3.60;;;2.77;;
3337;SDS011;1682;49.286;10.788;2023-04-24T06:36:32;2.27;;;2.10;;
3337;SDS011;1682;49.286;10.788;2023-04-24T06:39:00;1.97;;;1.50;;
3337;SDS011;1682;49.286;10.788;2023-04-24T06:41:28;4.37;;;2.33;;
3337;SDS011;1682;49.286;10.788;2023-04-24T06:43:55;3.37;;;3.03;;
3337;SDS011;1682;49.286;10.788;2023-04-24T06:46:22;2.03;;;1.90;;
3337;SDS011;1682;49.286;10.788;2023-04-24T06:48:51;2.90;;;1.57;;
3337;SDS011;1682;49.286;10.788;2023-04-24T06:51:22;0.93;;;0.93;;
3337;SDS011;1682;49.286;10.788;2023-04-24T06:53:51;2.87;;;1.20;;
3337;SDS011;1682;49.286;10.788;2023-04-24T06:56:18;2.33;;;1.63;;
3337;SDS011;1682;49.286;10.788;2023-04-24T06:58:45;3.30;;;1.30;;
3337;SDS011;1682;49.286;10.788;2023-04-24T07:01:12;1.20;;;1.20;;
3337;SDS011;1682;49.286;10.788;2023-04-24T07:03:40;1.90;;;1.50;;
3337;SDS011;1682;49.286;10.788;2023-04-24T07:06:07;2.00;;;1.90;;
3337;SDS011;1682;49.286;10.788;2023-04-24T07:08:36;2.50;;;2.30;;
3337;SDS011;1682;49.286;10.788;2023-04-24T07:11:03;2.60;;;1.90;;
3337;SDS011;1682;49.286;10.788;2023-04-24T07:13:31;2.60;;;2.13;;
3337;SDS011;1682;49.286;10.788;2023-04-24T07:16:00;1.93;;;1.83;;
3337;SDS011;1682;49.286;10.788;2023-04-24T07:18:27;2.93;;;2.73;;
3337;SDS011;1682;49.286;10.788;2023-04-24T07:20:55;2.27;;;2.00;;
3337;SDS011;1682;49.286;10.788;2023-04-24T07:23:22;2.00;;;1.87;;
3337;SDS011;1682;49.286;10.788;2023-04-24T07:25:51;1.90;;;1.80;;
3337;SDS011;1682;49.286;10.788;2023-04-24T07:28:18;3.03;;;2.73;;
3337;SDS011;1682;49.286;10.788;2023-04-24T07:30:45;3.00;;;2.80;;
3337;SDS011;1682;49.286;10.788;2023-04-24T07:33:13;3.07;;;2.87;;
3337;SDS011;1682;49.286;10.788;2023-04-24T07:35:40;2.70;;;2.00;;
3337;SDS011;1682;49.286;10.788;2023-04-24T07:38:07;2.40;;;2.20;;
3337;SDS011;1682;49.286;10.788;2023-04-24T07:40:35;4.97;;;2.40;;
3337;SDS011;1682;49.286;10.788;2023-04-24T07:43:03;5.83;;;2.50;;
3337;SDS011;1682;49.286;10.788;2023-04-24T07:45:31;2.73;;;2.50;;
3337;SDS011;1682;49.286;10.788;2023-04-24T07:48:01;9.00;;;2.93;;
3337;SDS011;1682;49.286;10.788;2023-04-24T07:50:28;2.67;;;2.47;;
3337;SDS011;1682;49.286;10.788;2023-04-24T07:52:55;5.33;;;2.93;;
3337;SDS011;1682;49.286;10.788;2023-04-24T07:55:22;3.10;;;2.90;;
3337;SDS011;1682;49.286;10.788;2023-04-24T07:57:50;9.60;;;8.90;;
3337;SDS011;1682;49.286;10.788;2023-04-24T08:00:19;3.07;;;2.77;;
3337;SDS011;1682;49.286;10.788;2023-04-24T08:02:46;3.00;;;2.80;;
3337;SDS011;1682;49.286;10.788;2023-04-24T08:05:14;2.53;;;2.40;;
3337;SDS011;1682;49.286;10.788;2023-04-24T08:07:41;2.27;;;2.13;;
3337;SDS011;1682;49.286;10.788;2023-04-24T08:10:09;3.00;;;2.77;;
3337;SDS011;1682;49.286;10.788;2023-04-24T08:12:37;2.97;;;2.77;;
3337;SDS011;1682;49.286;10.788;2023-04-24T08:15:05;5.07;;;4.67;;
3337;SDS011;1682;49.286;10.788;2023-04-24T08:17:34;4.27;;;3.30;;
3337;SDS011;1682;49.286;10.788;2023-04-24T08:20:02;3.10;;;2.90;;
3337;SDS011;1682;49.286;10.788;2023-04-24T08:22:30;2.73;;;2.10;;
3337;SDS011;1682;49.286;10.788;2023-04-24T08:24:59;2.97;;;2.77;;
3337;SDS011;1682;49.286;10.788;2023-04-24T08:27:26;3.20;;;3.00;;
3337;SDS011;1682;49.286;10.788;2023-04-24T08:29:54;3.73;;;3.43;;
3337;SDS011;1682;49.286;10.788;2023-04-24T08:32:21;2.40;;;2.30;;
3337;SDS011;1682;49.286;10.788;2023-04-24T08:34:50;2.97;;;2.67;;
3337;SDS011;1682;49.286;10.788;2023-04-24T08:37:17;3.20;;;3.00;;
3337;SDS011;1682;49.286;10.788;2023-04-24T08:39:45;2.43;;;2.23;;
3337;SDS011;1682;49.286;10.788;2023-04-24T08:42:12;2.87;;;2.67;;
3337;SDS011;1682;49.286;10.788;2023-04-24T08:44:39;2.47;;;2.27;;
3337;SDS011;1682;49.286;10.788;2023-04-24T08:47:07;2.97;;;2.30;;
3337;SDS011;1682;49.286;10.788;2023-04-24T08:49:34;2.37;;;2.20;;
3337;SDS011;1682;49.286;10.788;2023-04-24T08:52:04;2.43;;;2.23;;
3337;SDS011;1682;49.286;10.788;2023-04-24T08:54:32;3.23;;;2.40;;
3337;SDS011;1682;49.286;10.788;2023-04-24T08:57:01;2.53;;;2.33;;
3337;SDS011;1682;49.286;10.788;2023-04-24T08:59:29;4.37;;;2.30;;
3337;SDS011;1682;49.286;10.788;2023-04-24T09:01:56;2.40;;;1.80;;
3337;SDS011;1682;49.286;10.788;2023-04-24T09:04:24;2.00;;;1.90;;
3337;SDS011;1682;49.286;10.788;2023-04-24T09:06:51;2.50;;;2.10;;
3337;SDS011;1682;49.286;10.788;2023-04-24T09:09:22;2.20;;;2.10;;
3337;SDS011;1682;49.286;10.788;2023-04-24T09:11:49;2.30;;;2.10;;
3337;SDS011;1682;49.286;10.788;2023-04-24T09:14:18;1.70;;;1.60;;
3337;SDS011;1682;49.286;10.788;2023-04-24T09:16:46;2.70;;;2.50;;
3337;SDS011;1682;49.286;10.788;2023-04-24T09:19:13;2.70;;;2.10;;
3337;SDS011;1682;49.286;10.788;2023-04-24T09:21:40;3.93;;;2.90;;
3337;SDS011;1682;49.286;10.788;2023-04-24T09:24:14;2.53;;;1.87;;
3337;SDS011;1682;49.286;10.788;2023-04-24T09:26:44;1.80;;;1.67;;
3337;SDS011;1682;49.286;10.788;2023-04-24T09:29:14;2.17;;;1.97;;
3337;SDS011;1682;49.286;10.788;2023-04-24T09:31:41;2.70;;;1.60;;
3337;SDS011;1682;49.286;10.788;2023-04-24T09:34:18;3.23;;;2.50;;
3337;SDS011;1682;49.286;10.788;2023-04-24T09:36:47;2.13;;;2.00;;
3337;SDS011;1682;49.286;10.788;2023-04-24T09:39:15;2.10;;;1.80;;
3337;SDS011;1682;49.286;10.788;2023-04-24T09:41:47;2.53;;;1.43;;
3337;SDS011;1682;49.286;10.788;2023-04-24T09:44:16;1.80;;;1.70;;
3337;SDS011;1682;49.286;10.788;2023-04-24T09:46:45;2.27;;;1.80;;
3337;SDS011;1682;49.286;10.788;2023-04-24T09:49:14;1.90;;;1.80;;
3337;SDS011;1682;49.286;10.788;2023-04-24T09:51:41;1.70;;;1.60;;
3337;SDS011;1682;49.286;10.788;2023-04-24T09:54:15;1.73;;;1.63;;
3337;SDS011;1682;49.286;10.788;2023-04-24T09:56:43;1.83;;;1.40;;
3337;SDS011;1682;49.286;10.788;2023-04-24T09:59:12;2.03;;;1.93;;
3337;SDS011;1682;49.286;10.788;2023-04-24T10:01:41;4.50;;;1.73;;
3337;SDS011;1682;49.286;10.788;2023-04-24T10:04:16;1.73;;;1.30;;
3337;SDS011;1682;49.286;10.788;2023-04-24T10:06:43;2.90;;;1.90;;
3337;SDS011;1682;49.286;10.788;2023-04-24T10:09:11;4.83;;;1.93;;
3337;SDS011;1682;49.286;10.788;2023-04-24T10:11:41;2.00;;;1.90;;
3337;SDS011;1682;49.286;10.788;2023-04-24T10:14:09;2.23;;;1.50;;
3337;SDS011;1682;49.286;10.788;2023-04-24T10:16:38;1.70;;;1.60;;
3337;SDS011;1682;49.286;10.788;2023-04-24T10:19:06;1.37;;;1.27;;
3337;SDS011;1682;49.286;10.788;2023-04-24T10:21:34;2.33;;;1.40;;
3337;SDS011;1682;49.286;10.788;2023-04-24T10:24:02;1.30;;;1.20;;
3337;SDS011;1682;49.286;10.788;2023-04-24T10:26:30;1.80;;;1.70;;
3337;SDS011;1682;49.286;10.788;2023-04-24T10:28:58;3.27;;;1.50;;
3337;SDS011;1682;49.286;10.788;2023-04-24T10:31:25;1.40;;;1.30;;
3337;SDS011;1682;49.286;10.788;2023-04-24T10:33:54;2.07;;;1.30;;
3337;SDS011;1682;49.286;10.788;2023-04-24T10:36:22;1.40;;;1.30;;
3337;SDS011;1682;49.286;10.788;2023-04-24T10:38:51;1.37;;;1.27;;
3337;SDS011;1682;49.286;10.788;2023-04-24T10:41:19;0.97;;;0.97;;
3337;SDS011;1682;49.286;10.788;2023-04-24T10:43:48;2.27;;;1.40;;
3337;SDS011;1682;49.286;10.788;2023-04-24T10:46:17;2.37;;;1.40;;
3337;SDS011;1682;49.286;10.788;2023-04-24T10:48:51;2.97;;;1.50;;
3337;SDS011;1682;49.286;10.788;2023-04-24T10:51:21;3.37;;;1.63;;
3337;SDS011;1682;49.286;10.788;2023-04-24T10:53:49;2.00;;;1.90;;
3337;SDS011;1682;49.286;10.788;2023-04-24T10:56:16;1.70;;;1.60;;
3337;SDS011;1682;49.286;10.788;2023-04-24T10:58:44;2.17;;;1.57;;
3337;SDS011;1682;49.286;10.788;2023-04-24T11:01:23;2.47;;;1.47;;
3337;SDS011;1682;49.286;10.788;2023-04-24T11:03:54;1.33;;;1.27;;
3337;SDS011;1682;49.286;10.788;2023-04-24T11:06:29;1.30;;;1.23;;
3337;SDS011;1682;49.286;10.788;2023-04-24T11:09:04;1.43;;;1.33;;
3337;SDS011;1682;49.286;10.788;2023-04-24T11:11:32;1.70;;;1.50;;
3337;SDS011;1682;49.286;10.788;2023-04-24T11:14:06;3.57;;;1.73;;
3337;SDS011;1682;49.286;10.788;2023-04-24T11:16:38;1.60;;;1.50;;
3337;SDS011;1682;49.286;10.788;2023-04-24T11:19:06;1.00;;;1.00;;
3337;SDS011;1682;49.286;10.788;2023-04-24T11:21:42;1.73;;;1.37;;
3337;SDS011;1682;49.286;10.788;2023-04-24T11:27:09;1.60;;;1.50;;
3337;SDS011;1682;49.286;10.788;2023-04-24T11:29:40;4.07;;;2.00;;
3337;SDS011;1682;49.286;10.788;2023-04-24T11:32:14;2.03;;;1.93;;
3337;SDS011;1682;49.286;10.788;2023-04-24T11:34:44;1.57;;;1.47;;
3337;SDS011;1682;49.286;10.788;2023-04-24T11:37:13;3.40;;;2.27;;
3337;SDS011;1682;49.286;10.788;2023-04-24T11:39:41;2.30;;;2.10;;
3337;SDS011;1682;49.286;10.788;2023-04-24T11:42:08;12.60;;;2.50;;
3337;SDS011;1682;49.286;10.788;2023-04-24T11:44:36;1.90;;;1.80;;
3337;SDS011;1682;49.286;10.788;2023-04-24T11:47:04;2.70;;;1.57;;
3337;SDS011;1682;49.286;10.788;2023-04-24T11:49:32;1.60;;;1.50;;
3337;SDS011;1682;49.286;10.788;2023-04-24T11:51:59;4.30;;;1.53;;
3337;SDS011;1682;49.286;10.788;2023-04-24T11:54:28;1.77;;;1.67;;
3337;SDS011;1682;49.286;10.788;2023-04-24T11:56:56;2.20;;;1.67;;
3337;SDS011;1682;49.286;10.788;2023-04-24T11:59:23;2.63;;;1.57;;
3337;SDS011;1682;49.286;10.788;2023-04-24T12:01:51;5.33;;;1.57;;
3337;SDS011;1682;49.286;10.788;2023-04-24T12:04:18;1.70;;;1.60;;
3337;SDS011;1682;49.286;10.788;2023-04-24T12:09:42;2.53;;;1.50;;
3337;SDS011;1682;49.286;10.788;2023-04-24T12:12:09;2.37;;;1.27;;
3337;SDS011;1682;49.286;10.788;2023-04-24T12:14:44;1.73;;;1.63;;
3337;SDS011;1682;49.286;10.788;2023-04-24T12:17:11;1.53;;;1.43;;
3337;SDS011;1682;49.286;10.788;2023-04-24T12:19:44;3.27;;;1.63;;
3337;SDS011;1682;49.286;10.788;2023-04-24T12:22:11;3.70;;;1.57;;
3337;SDS011;1682;49.286;10.788;2023-04-24T12:27:23;2.03;;;1.80;;
3337;SDS011;1682;49.286;10.788;2023-04-24T12:29:53;2.23;;;2.00;;
3337;SDS011;1682;49.286;10.788;2023-04-24T12:32:20;2.30;;;2.20;;
3337;SDS011;1682;49.286;10.788;2023-04-24T12:34:48;7.90;;;2.27;;
3337;SDS011;1682;49.286;10.788;2023-04-24T12:37:16;1.50;;;1.40;;
3337;SDS011;1682;49.286;10.788;2023-04-24T12:39:44;3.53;;;2.10;;
3337;SDS011;1682;49.286;10.788;2023-04-24T12:42:26;1.93;;;1.83;;
3337;SDS011;1682;49.286;10.788;2023-04-24T12:44:58;2.43;;;2.13;;
3337;SDS011;1682;49.286;10.788;2023-04-24T12:47:26;1.90;;;1.80;;
3337;SDS011;1682;49.286;10.788;2023-04-24T12:49:53;2.23;;;1.80;;
3337;SDS011;1682;49.286;10.788;2023-04-24T12:52:20;2.00;;;1.90;;
3337;SDS011;1682;49.286;10.788;2023-04-24T12:54:48;1.63;;;1.53;;
3337;SDS011;1682;49.286;10.788;2023-04-24T12:57:16;1.50;;;1.40;;
3337;SDS011;1682;49.286;10.788;2023-04-24T12:59:44;3.53;;;1.87;;
3337;SDS011;1682;49.286;10.788;2023-04-24T13:02:12;1.47;;;1.37;;
3337;SDS011;1682;49.286;10.788;2023-04-24T13:04:42;1.40;;;1.30;;
3337;SDS011;1682;49.286;10.788;2023-04-24T13:07:10;1.93;;;1.83;;
3337;SDS011;1682;49.286;10.788;2023-04-24T13:09:37;1.97;;;1.87;;
3337;SDS011;1682;49.286;10.788;2023-04-24T13:12:05;1.93;;;1.43;;
3337;SDS011;1682;49.286;10.788;2023-04-24T13:14:32;3.70;;;3.17;;
3337;SDS011;1682;49.286;10.788;2023-04-24T13:17:01;2.10;;;2.00;;
3337;SDS011;1682;49.286;10.788;2023-04-24T13:19:29;3.33;;;1.93;;
3337;SDS011;1682;49.286;10.788;2023-04-24T13:21:56;1.93;;;1.83;;
3337;SDS011;1682;49.286;10.788;2023-04-24T13:24:24;2.33;;;2.20;;
3337;SDS011;1682;49.286;10.788;2023-04-24T13:26:51;2.23;;;2.13;;
3337;SDS011;1682;49.286;10.788;2023-04-24T13:29:19;3.70;;;2.63;;
3337;SDS011;1682;49.286;10.788;2023-04-24T13:31:46;2.70;;;2.17;;
3337;SDS011;1682;49.286;10.788;2023-04-24T13:34:15;1.97;;;1.87;;
3337;SDS011;1682;49.286;10.788;2023-04-24T13:36:42;2.37;;;2.17;;
3337;SDS011;1682;49.286;10.788;2023-04-24T13:39:10;2.77;;;2.57;;
3337;SDS011;1682;49.286;10.788;2023-04-24T13:41:37;2.90;;;2.70;;
3337;SDS011;1682;49.286;10.788;2023-04-24T13:44:05;2.60;;;2.50;;
3337;SDS011;1682;49.286;10.788;2023-04-24T13:46:32;7.35;;;2.40;;
3337;SDS011;1682;49.286;10.788;2023-04-24T13:49:02;2.20;;;2.10;;
3337;SDS011;1682;49.286;10.788;2023-04-24T13:51:32;2.60;;;2.50;;
3337;SDS011;1682;49.286;10.788;2023-04-24T13:54:00;2.43;;;2.23;;
3337;SDS011;1682;49.286;10.788;2023-04-24T13:56:27;2.47;;;2.27;;
3337;SDS011;1682;49.286;10.788;2023-04-24T13:58:54;3.60;;;3.30;;
3337;SDS011;1682;49.286;10.788;2023-04-24T14:01:21;3.00;;;2.17;;
3337;SDS011;1682;49.286;10.788;2023-04-24T14:03:49;2.37;;;2.23;;
3337;SDS011;1682;49.286;10.788;2023-04-24T14:06:17;2.47;;;2.27;;
3337;SDS011;1682;49.286;10.788;2023-04-24T14:08:46;2.93;;;2.73;;
3337;SDS011;1682;49.286;10.788;2023-04-24T14:11:14;2.53;;;2.33;;
3337;SDS011;1682;49.286;10.788;2023-04-24T14:13:41;2.47;;;2.27;;
3337;SDS011;1682;49.286;10.788;2023-04-24T14:16:09;3.17;;;2.87;;
3337;SDS011;1682;49.286;10.788;2023-04-24T14:18:36;3.20;;;2.90;;
3337;SDS011;1682;49.286;10.788;2023-04-24T14:21:04;2.20;;;2.10;;
3337;SDS011;1682;49.286;10.788;2023-04-24T14:23:31;2.63;;;2.43;;
3337;SDS011;1682;49.286;10.788;2023-04-24T14:26:00;3.20;;;2.55;;
3337;SDS011;1682;49.286;10.788;2023-04-24T14:28:27;2.60;;;2.40;;
3337;SDS011;1682;49.286;10.788;2023-04-24T14:30:55;2.20;;;2.00;;
3337;SDS011;1682;49.286;10.788;2023-04-24T14:33:22;2.10;;;1.80;;
3337;SDS011;1682;49.286;10.788;2023-04-24T14:35:49;1.80;;;1.70;;
3337;SDS011;1682;49.286;10.788;2023-04-24T14:38:16;1.97;;;1.87;;
3337;SDS011;1682;49.286;10.788;2023-04-24T14:40:44;2.13;;;2.03;;
3337;SDS011;1682;49.286;10.788;2023-04-24T14:43:12;2.00;;;1.90;;
3337;SDS011;1682;49.286;10.788;2023-04-24T14:45:40;2.23;;;2.13;;
3337;SDS011;1682;49.286;10.788;2023-04-24T14:48:07;3.20;;;2.90;;
3337;SDS011;1682;49.286;10.788;2023-04-24T14:50:34;3.30;;;2.40;;
3337;SDS011;1682;49.286;10.788;2023-04-24T14:53:01;2.60;;;2.40;;
3337;SDS011;1682;49.286;10.788;2023-04-24T14:55:29;3.27;;;2.97;;
3337;SDS011;1682;49.286;10.788;2023-04-24T14:57:56;6.30;;;3.23;;
3337;SDS011;1682;49.286;10.788;2023-04-24T15:00:25;2.90;;;2.70;;
3337;SDS011;1682;49.286;10.788;2023-04-24T15:02:52;3.10;;;2.80;;
3337;SDS011;1682;49.286;10.788;2023-04-24T15:05:20;2.97;;;2.77;;
3337;SDS011;1682;49.286;10.788;2023-04-24T15:07:47;2.93;;;2.70;;
3337;SDS011;1682;49.286;10.788;2023-04-24T15:10:15;2.67;;;2.47;;
3337;SDS011;1682;49.286;10.788;2023-04-24T15:12:42;2.70;;;2.60;;